Rubottom, Oklahoma
Current Conditions -  °F | °C
As of 9:35 PM on Saturday 25 Oct 2014 (Local Time) from K1F0 Reporting Station
Clear Clear  
Wind Chill: 72°   Ceiling: Unl
Heat Index: 72°   Visibility: 10mi
Dew Point: 59°   Wind: 0mph
Humidity: 64%   Direction: NA
Pressure: 30.04"   Gusts: NA
Location:  34.156°N, 97.4228°W
Report Text: K1F0 260235Z AUTO 00000KT 10SM CLR 22/15 A3004 RMK AO2
Loading
Personal Weather Stations






























Interactive Weather Map
Tropical Storm Tracking
New forecast layout! Learn more

10-Day Weather Forecast

Advertisements
Track Severe Weather on mobile